Time;durP1;ratioP1;P1;durP2;ratioP2;P2;SDS_P1;SDS_P2;PMS_P1;PMS_P2;Temp;Humidity;BMP_temperature;BMP_pressure;BME280_temperature;BME280_humidity;BME280_pressure;Samples;Min_cycle;Max_cycle;Signal;HPM_P1;HPM_P2
2022/11/20 18:22:14;;;;;;;9.47;1.67;;;7.60;99.90;;;;;;4533701;23;20235;-64
2022/11/20 18:24:41;;;;;;;3.80;1.20;;;7.70;99.90;;;;;;4879560;29;20211;-73
2022/11/20 18:27:08;;;;;;;9.53;1.53;;;7.70;99.90;;;;;;4880368;29;20238;-76
2022/11/20 18:29:34;;;;;;;4.07;1.47;;;7.70;99.90;;;;;;4873974;29;20257;-66
2022/11/20 18:32:01;;;;;;;5.60;1.63;;;7.80;99.90;;;;;;4865874;29;20591;-65
2022/11/20 18:34:28;;;;;;;2.53;1.50;;;7.90;99.90;;;;;;4897610;29;20214;-65
2022/11/20 18:36:55;;;;;;;6.77;2.13;;;7.90;99.90;;;;;;4897536;29;20211;-67
2022/11/20 18:39:22;;;;;;;5.27;2.07;;;8.00;99.90;;;;;;4893087;29;20233;-65
2022/11/20 18:44:51;;;;;;;10.00;2.30;;;8.10;99.90;;;;;;4879833;29;20206;-65
2022/11/20 18:47:21;;;;;;;7.17;2.27;;;8.10;99.90;;;;;;4880390;29;20708;-63
2022/11/20 18:49:49;;;;;;;7.00;2.20;;;8.20;99.90;;;;;;4881655;29;20261;-64
2022/11/20 18:52:16;;;;;;;11.63;2.87;;;8.30;99.90;;;;;;4880534;29;20211;-64
2022/11/20 18:54:43;;;;;;;10.37;2.77;;;8.40;99.90;;;;;;4880804;29;20222;-65
2022/11/20 18:57:13;;;;;;;9.37;2.70;;;8.40;99.90;;;;;;4879646;29;20674;-64
2022/11/20 18:59:40;;;;;;;7.40;3.00;;;8.40;99.90;;;;;;4879808;29;20234;-64
2022/11/20 19:02:06;;;;;;;7.83;2.33;;;8.50;99.90;;;;;;4879564;29;20686;-63
2022/11/20 19:04:33;;;;;;;6.73;1.97;;;8.50;99.90;;;;;;4880424;29;20254;-64
2022/11/20 19:07:00;;;;;;;14.13;3.30;;;8.50;99.90;;;;;;4881442;29;20211;-65
2022/11/20 19:09:27;;;;;;;6.83;3.10;;;8.60;99.90;;;;;;4882484;29;20230;-76
2022/11/20 19:11:53;;;;;;;7.80;2.60;;;8.70;99.90;;;;;;4867014;29;20207;-65
2022/11/20 19:14:20;;;;;;;9.87;2.53;;;8.70;99.90;;;;;;4864311;29;20211;-66
2022/11/20 19:16:47;;;;;;;7.17;3.10;;;8.60;99.90;;;;;;4859787;29;20207;-67
2022/11/20 19:19:13;;;;;;;6.40;2.50;;;8.80;99.90;;;;;;4862918;29;20223;-70
2022/11/20 19:21:42;;;;;;;8.30;2.90;;;8.60;99.90;;;;;;4865399;29;20219;-69
2022/11/20 19:24:09;;;;;;;12.00;2.43;;;8.60;99.90;;;;;;4880340;29;20227;-64
2022/11/20 19:26:37;;;;;;;10.37;2.60;;;8.50;99.90;;;;;;4871632;29;20203;-65
2022/11/20 19:29:05;;;;;;;10.20;2.90;;;8.40;99.90;;;;;;4864714;29;20242;-66
2022/11/20 19:31:32;;;;;;;11.20;2.97;;;8.40;99.90;;;;;;4871711;29;20238;-65
2022/11/20 19:34:00;;;;;;;9.47;3.30;;;8.50;99.90;;;;;;4877079;29;20214;-65
2022/11/20 19:36:29;;;;;;;11.07;2.73;;;8.50;99.90;;;;;;4874022;29;20241;-66
2022/11/20 19:38:58;;;;;;;12.53;3.50;;;8.50;99.90;;;;;;4878814;29;20227;-73
2022/11/20 19:41:28;;;;;;;7.20;2.50;;;8.50;99.90;;;;;;4879426;29;20252;-65
2022/11/20 19:43:56;;;;;;;9.90;2.57;;;8.40;99.90;;;;;;4886452;29;20241;-65
2022/11/20 19:46:23;;;;;;;9.13;3.37;;;8.40;99.90;;;;;;4890408;29;20243;-71
2022/11/20 19:48:50;;;;;;;9.27;2.67;;;8.40;99.90;;;;;;4881951;29;20241;-65
2022/11/20 19:51:19;;;;;;;9.43;2.87;;;8.40;99.90;;;;;;4878996;29;20238;-65
2022/11/20 19:53:46;;;;;;;9.30;2.63;;;8.40;99.90;;;;;;4866457;29;20678;-65
2022/11/20 19:56:14;;;;;;;7.97;2.37;;;8.30;99.90;;;;;;4879539;29;20220;-64
2022/11/20 19:58:41;;;;;;;19.43;3.00;;;8.30;99.90;;;;;;4878888;29;20231;-64
2022/11/20 20:01:10;;;;;;;10.33;2.93;;;8.30;99.90;;;;;;4879178;29;20237;-68
2022/11/20 20:03:37;;;;;;;7.70;2.53;;;8.30;99.90;;;;;;4878962;29;20214;-64
2022/11/20 20:06:06;;;;;;;7.43;2.53;;;8.30;99.90;;;;;;4879126;29;20211;-68
2022/11/20 20:08:33;;;;;;;11.73;3.03;;;8.20;99.90;;;;;;4878808;29;20235;-66
2022/11/20 20:11:00;;;;;;;8.93;2.70;;;8.10;99.90;;;;;;4878901;29;20573;-64
2022/11/20 20:13:28;;;;;;;11.13;2.90;;;8.10;99.90;;;;;;4878898;29;20215;-65
2022/11/20 20:15:55;;;;;;;10.97;2.53;;;8.10;99.90;;;;;;4879129;29;20207;-70
2022/11/20 20:18:22;;;;;;;8.93;2.70;;;8.10;99.90;;;;;;4878664;29;20239;-65
2022/11/20 20:20:49;;;;;;;10.27;3.00;;;8.10;99.90;;;;;;4878950;29;20697;-65
2022/11/20 20:23:16;;;;;;;7.00;2.10;;;7.90;99.90;;;;;;4875976;29;20230;-65
2022/11/20 20:25:47;;;;;;;14.63;2.27;;;7.80;99.90;;;;;;4860526;29;20211;-65
2022/11/20 20:28:14;;;;;;;13.20;3.03;;;7.80;99.90;;;;;;4872350;29;20698;-66
2022/11/20 20:30:42;;;;;;;10.27;2.20;;;7.70;99.90;;;;;;4878889;29;20243;-77
2022/11/20 20:33:09;;;;;;;12.77;1.87;;;7.70;99.90;;;;;;4878721;29;20221;-65
2022/11/20 20:35:40;;;;;;;7.10;2.07;;;7.70;99.90;;;;;;4878845;29;20211;-64
2022/11/20 20:38:07;;;;;;;6.63;2.17;;;7.60;99.90;;;;;;4879038;29;20235;-72
2022/11/20 20:40:33;;;;;;;7.47;2.10;;;7.60;99.90;;;;;;4878885;29;20222;-64
2022/11/20 20:43:00;;;;;;;11.70;2.20;;;7.60;99.90;;;;;;4878530;29;20538;-77
2022/11/20 20:45:27;;;;;;;6.27;1.93;;;7.50;99.90;;;;;;4878826;29;20203;-75
2022/11/20 20:47:55;;;;;;;5.03;1.80;;;7.40;99.90;;;;;;4877937;29;20218;-77
2022/11/20 20:50:22;;;;;;;9.77;2.50;;;7.40;99.90;;;;;;4878519;29;20234;-73
2022/11/20 20:52:49;;;;;;;14.97;2.17;;;7.30;99.90;;;;;;4879235;29;20218;-78
2022/11/20 20:55:16;;;;;;;6.07;2.23;;;7.30;99.90;;;;;;4877100;29;20211;-71
2022/11/20 20:57:43;;;;;;;14.03;2.43;;;7.20;99.90;;;;;;4878093;29;20207;-65
2022/11/20 21:00:10;;;;;;;11.20;3.27;;;7.20;99.90;;;;;;4878414;29;20209;-73
2022/11/20 21:02:37;;;;;;;8.23;2.50;;;7.20;99.90;;;;;;4878109;29;20218;-75
2022/11/20 21:05:06;;;;;;;13.10;2.33;;;7.20;99.90;;;;;;4878363;29;20240;-78
2022/11/20 21:07:33;;;;;;;11.23;2.30;;;7.20;99.90;;;;;;4878262;29;20559;-76
2022/11/20 21:10:00;;;;;;;11.43;3.33;;;7.20;99.90;;;;;;4878133;29;20256;-78
2022/11/20 21:12:26;;;;;;;11.97;2.27;;;7.10;99.90;;;;;;4877918;29;20209;-76
2022/11/20 21:14:53;;;;;;;6.13;2.20;;;7.20;99.90;;;;;;4878563;29;20563;-64
2022/11/20 21:17:20;;;;;;;14.30;2.47;;;7.20;99.90;;;;;;4877797;29;20211;-64
2022/11/20 21:19:47;;;;;;;16.57;2.43;;;7.20;99.90;;;;;;4877889;29;20665;-74
2022/11/20 21:22:14;;;;;;;5.00;2.00;;;7.10;99.90;;;;;;4877962;29;20215;-65
2022/11/20 21:24:41;;;;;;;12.53;2.40;;;7.10;99.90;;;;;;4876159;29;20211;-76
2022/11/20 21:27:08;;;;;;;8.33;2.00;;;7.10;99.90;;;;;;4877839;29;20223;-64
2022/11/20 21:29:34;;;;;;;8.47;2.60;;;7.20;99.90;;;;;;4877674;29;20237;-65
2022/11/20 21:32:01;;;;;;;8.27;2.40;;;7.20;99.90;;;;;;4877781;29;20242;-72
2022/11/20 21:34:28;;;;;;;7.17;1.80;;;7.20;99.90;;;;;;4877694;29;20671;-65
2022/11/20 21:36:55;;;;;;;5.70;1.63;;;7.10;99.90;;;;;;4878546;29;20207;-65
2022/11/20 21:39:23;;;;;;;6.20;1.80;;;7.00;99.90;;;;;;4878233;29;20227;-78
2022/11/20 21:41:50;;;;;;;6.60;1.80;;;7.10;99.90;;;;;;4878265;29;20644;-65
2022/11/20 21:44:17;;;;;;;8.77;1.60;;;7.10;99.90;;;;;;4877625;29;20214;-73
2022/11/20 21:46:45;;;;;;;10.50;1.80;;;7.10;99.90;;;;;;4867535;29;20310;-68
2022/11/20 21:49:13;;;;;;;6.23;1.40;;;7.10;99.90;;;;;;4862853;29;20235;-66
2022/11/20 21:51:40;;;;;;;7.90;1.90;;;7.20;99.90;;;;;;4878115;29;20271;-65
2022/11/20 21:54:09;;;;;;;8.30;1.90;;;7.30;99.90;;;;;;4874266;29;20664;-65
2022/11/20 21:56:37;;;;;;;5.87;1.67;;;7.40;99.90;;;;;;4859745;29;20212;-65
2022/11/20 21:59:04;;;;;;;6.60;1.80;;;7.40;99.90;;;;;;4873712;29;20590;-64
2022/11/20 22:01:31;;;;;;;3.23;1.60;;;7.40;99.90;;;;;;4881534;29;20207;-65
2022/11/20 22:04:00;;;;;;;5.53;1.70;;;7.30;99.90;;;;;;4881348;29;20655;-64
2022/11/20 22:06:31;;;;;;;8.20;1.50;;;7.40;99.90;;;;;;4881527;29;20222;-64
2022/11/20 22:08:58;;;;;;;12.40;2.33;;;7.40;99.90;;;;;;4881406;29;20231;-73
2022/11/20 22:11:25;;;;;;;5.10;1.50;;;7.40;99.90;;;;;;4881642;29;20578;-65
2022/11/20 22:16:38;;;;;;;9.80;1.90;;;7.40;99.90;;;;;;4881771;29;20218;-65
